Terminal Aerodrome Forecast
Issued by NWS

Home | Current Version | Previous Version | Text Only | Print | Product List | Glossary On
Versions: 1 2 3 4 5 6 7 8 9 10 11 12 13 14 15 16 17 18
702
FTUS41 KCAR 042329
TAFPQI
TAF
KPQI 042329Z 0500/0524 VRB02KT P6SM SCT025 OVC040
     FM050500 10004KT P6SM -SHRA OVC022
     FM051200 07005KT P6SM OVC028
     FM051800 06007KT P6SM OVC035=

USA.gov is the U.S. government's official web portal to all federal, state and local government web resources and services.